sensor_id;sensor_type;location;lat;lon;timestamp;P1;durP1;ratioP1;P2;durP2;ratioP2
74487;SDS011;63019;51.080;13.642;2023-04-25T00:00:13;3.83;;;1.60;;
74487;SDS011;63019;51.080;13.642;2023-04-25T00:01:16;3.53;;;1.50;;
74487;SDS011;63019;51.080;13.642;2023-04-25T00:02:17;2.90;;;1.70;;
74487;SDS011;63019;51.080;13.642;2023-04-25T00:03:20;2.53;;;1.50;;
74487;SDS011;63019;51.080;13.642;2023-04-25T00:04:23;3.50;;;1.70;;
74487;SDS011;63019;51.080;13.642;2023-04-25T00:05:25;4.55;;;1.40;;
74487;SDS011;63019;51.080;13.642;2023-04-25T00:06:28;2.83;;;1.50;;
74487;SDS011;63019;51.080;13.642;2023-04-25T00:07:31;2.67;;;1.35;;
74487;SDS011;63019;51.080;13.642;2023-04-25T00:08:33;3.53;;;1.40;;
74487;SDS011;63019;51.080;13.642;2023-04-25T00:09:35;5.77;;;1.33;;
74487;SDS011;63019;51.080;13.642;2023-04-25T00:10:37;2.57;;;1.23;;
74487;SDS011;63019;51.080;13.642;2023-04-25T00:11:39;2.40;;;1.48;;
74487;SDS011;63019;51.080;13.642;2023-04-25T00:12:41;5.15;;;1.45;;
74487;SDS011;63019;51.080;13.642;2023-04-25T00:13:43;1.83;;;1.30;;
74487;SDS011;63019;51.080;13.642;2023-04-25T00:14:48;1.63;;;1.30;;
74487;SDS011;63019;51.080;13.642;2023-04-25T00:15:51;3.50;;;1.40;;
74487;SDS011;63019;51.080;13.642;2023-04-25T00:16:54;3.25;;;1.50;;
74487;SDS011;63019;51.080;13.642;2023-04-25T00:17:56;10.45;;;1.50;;
74487;SDS011;63019;51.080;13.642;2023-04-25T00:18:58;2.70;;;1.20;;
74487;SDS011;63019;51.080;13.642;2023-04-25T00:20:00;3.83;;;1.50;;
74487;SDS011;63019;51.080;13.642;2023-04-25T00:21:06;2.70;;;1.47;;
74487;SDS011;63019;51.080;13.642;2023-04-25T00:22:07;3.40;;;1.38;;
74487;SDS011;63019;51.080;13.642;2023-04-25T00:23:09;6.40;;;1.30;;
74487;SDS011;63019;51.080;13.642;2023-04-25T00:24:11;3.70;;;1.45;;
74487;SDS011;63019;51.080;13.642;2023-04-25T00:25:13;2.72;;;1.27;;
74487;SDS011;63019;51.080;13.642;2023-04-25T00:26:15;2.47;;;1.30;;
74487;SDS011;63019;51.080;13.642;2023-04-25T00:27:17;2.50;;;1.40;;
74487;SDS011;63019;51.080;13.642;2023-04-25T00:28:18;1.90;;;1.23;;
74487;SDS011;63019;51.080;13.642;2023-04-25T00:29:20;5.10;;;1.60;;
74487;SDS011;63019;51.080;13.642;2023-04-25T00:30:22;13.20;;;2.33;;
74487;SDS011;63019;51.080;13.642;2023-04-25T00:31:24;4.80;;;1.50;;
74487;SDS011;63019;51.080;13.642;2023-04-25T00:32:26;2.10;;;1.42;;
74487;SDS011;63019;51.080;13.642;2023-04-25T00:33:28;3.95;;;1.42;;
74487;SDS011;63019;51.080;13.642;2023-04-25T00:34:29;5.70;;;1.70;;
74487;SDS011;63019;51.080;13.642;2023-04-25T00:35:31;4.07;;;1.67;;
74487;SDS011;63019;51.080;13.642;2023-04-25T00:36:33;2.30;;;1.50;;
74487;SDS011;63019;51.080;13.642;2023-04-25T00:37:35;3.25;;;1.65;;
74487;SDS011;63019;51.080;13.642;2023-04-25T00:38:37;4.80;;;1.70;;
74487;SDS011;63019;51.080;13.642;2023-04-25T00:39:39;3.80;;;1.50;;
74487;SDS011;63019;51.080;13.642;2023-04-25T00:40:41;3.67;;;1.70;;
74487;SDS011;63019;51.080;13.642;2023-04-25T00:41:44;2.03;;;1.50;;
74487;SDS011;63019;51.080;13.642;2023-04-25T00:42:47;3.03;;;1.55;;
74487;SDS011;63019;51.080;13.642;2023-04-25T00:43:48;6.88;;;1.92;;
74487;SDS011;63019;51.080;13.642;2023-04-25T00:44:52;5.65;;;1.75;;
74487;SDS011;63019;51.080;13.642;2023-04-25T00:45:54;2.58;;;1.80;;
74487;SDS011;63019;51.080;13.642;2023-04-25T00:46:59;3.83;;;1.70;;
74487;SDS011;63019;51.080;13.642;2023-04-25T00:48:02;4.28;;;1.80;;
74487;SDS011;63019;51.080;13.642;2023-04-25T00:49:05;1.73;;;1.45;;
74487;SDS011;63019;51.080;13.642;2023-04-25T00:50:08;2.25;;;1.50;;
74487;SDS011;63019;51.080;13.642;2023-04-25T00:51:12;4.87;;;1.93;;
74487;SDS011;63019;51.080;13.642;2023-04-25T00:52:17;3.10;;;1.67;;
74487;SDS011;63019;51.080;13.642;2023-04-25T00:53:19;2.97;;;1.58;;
74487;SDS011;63019;51.080;13.642;2023-04-25T00:54:22;2.75;;;1.70;;
74487;SDS011;63019;51.080;13.642;2023-04-25T00:55:24;3.38;;;1.65;;
74487;SDS011;63019;51.080;13.642;2023-04-25T00:56:26;3.47;;;1.80;;
74487;SDS011;63019;51.080;13.642;2023-04-25T00:57:28;4.45;;;1.90;;
74487;SDS011;63019;51.080;13.642;2023-04-25T00:58:29;3.10;;;2.00;;
74487;SDS011;63019;51.080;13.642;2023-04-25T00:59:31;4.88;;;1.95;;
74487;SDS011;63019;51.080;13.642;2023-04-25T01:00:33;3.67;;;1.80;;
74487;SDS011;63019;51.080;13.642;2023-04-25T01:01:35;3.43;;;1.80;;
74487;SDS011;63019;51.080;13.642;2023-04-25T01:02:37;6.87;;;2.07;;
74487;SDS011;63019;51.080;13.642;2023-04-25T01:03:39;4.30;;;1.70;;
74487;SDS011;63019;51.080;13.642;2023-04-25T01:04:42;6.32;;;2.10;;
74487;SDS011;63019;51.080;13.642;2023-04-25T01:05:44;4.68;;;2.40;;
74487;SDS011;63019;51.080;13.642;2023-04-25T01:06:46;4.45;;;1.80;;
74487;SDS011;63019;51.080;13.642;2023-04-25T01:07:48;3.60;;;1.90;;
74487;SDS011;63019;51.080;13.642;2023-04-25T01:08:51;4.45;;;2.08;;
74487;SDS011;63019;51.080;13.642;2023-04-25T01:09:53;7.55;;;2.10;;
74487;SDS011;63019;51.080;13.642;2023-04-25T01:10:55;3.08;;;1.90;;
74487;SDS011;63019;51.080;13.642;2023-04-25T01:11:56;5.20;;;2.10;;
74487;SDS011;63019;51.080;13.642;2023-04-25T01:12:58;3.57;;;2.03;;
74487;SDS011;63019;51.080;13.642;2023-04-25T01:14:00;2.92;;;1.83;;
74487;SDS011;63019;51.080;13.642;2023-04-25T01:15:03;5.00;;;2.38;;
74487;SDS011;63019;51.080;13.642;2023-04-25T01:16:05;5.00;;;2.15;;
74487;SDS011;63019;51.080;13.642;2023-04-25T01:17:08;5.35;;;2.42;;
74487;SDS011;63019;51.080;13.642;2023-04-25T01:18:10;4.75;;;2.10;;
74487;SDS011;63019;51.080;13.642;2023-04-25T01:19:13;2.90;;;1.92;;
74487;SDS011;63019;51.080;13.642;2023-04-25T01:20:20;5.15;;;2.15;;
74487;SDS011;63019;51.080;13.642;2023-04-25T01:21:24;3.65;;;2.10;;
74487;SDS011;63019;51.080;13.642;2023-04-25T01:22:28;5.73;;;2.03;;
74487;SDS011;63019;51.080;13.642;2023-04-25T01:23:30;9.23;;;2.40;;
74487;SDS011;63019;51.080;13.642;2023-04-25T01:24:34;4.68;;;2.35;;
74487;SDS011;63019;51.080;13.642;2023-04-25T01:25:36;3.25;;;1.90;;
74487;SDS011;63019;51.080;13.642;2023-04-25T01:26:38;3.63;;;1.90;;
74487;SDS011;63019;51.080;13.642;2023-04-25T01:27:45;5.78;;;2.05;;
74487;SDS011;63019;51.080;13.642;2023-04-25T01:28:48;4.28;;;2.22;;
74487;SDS011;63019;51.080;13.642;2023-04-25T01:29:50;4.95;;;2.35;;
74487;SDS011;63019;51.080;13.642;2023-04-25T01:30:52;6.38;;;2.17;;
74487;SDS011;63019;51.080;13.642;2023-04-25T01:31:55;5.78;;;2.00;;
74487;SDS011;63019;51.080;13.642;2023-04-25T01:32:59;8.83;;;2.20;;
74487;SDS011;63019;51.080;13.642;2023-04-25T01:34:02;4.40;;;2.40;;
74487;SDS011;63019;51.080;13.642;2023-04-25T01:35:05;3.63;;;2.30;;
74487;SDS011;63019;51.080;13.642;2023-04-25T01:36:11;6.10;;;2.47;;
74487;SDS011;63019;51.080;13.642;2023-04-25T01:37:14;3.53;;;2.00;;
74487;SDS011;63019;51.080;13.642;2023-04-25T01:38:16;3.47;;;2.22;;
74487;SDS011;63019;51.080;13.642;2023-04-25T01:39:17;5.82;;;2.13;;
74487;SDS011;63019;51.080;13.642;2023-04-25T01:40:20;4.90;;;2.20;;
74487;SDS011;63019;51.080;13.642;2023-04-25T01:41:23;5.35;;;2.53;;
74487;SDS011;63019;51.080;13.642;2023-04-25T01:42:25;7.60;;;2.50;;
74487;SDS011;63019;51.080;13.642;2023-04-25T01:43:27;5.90;;;2.40;;
74487;SDS011;63019;51.080;13.642;2023-04-25T01:44:29;7.67;;;2.30;;
74487;SDS011;63019;51.080;13.642;2023-04-25T01:45:31;4.63;;;2.47;;
74487;SDS011;63019;51.080;13.642;2023-04-25T01:46:34;5.85;;;2.20;;
74487;SDS011;63019;51.080;13.642;2023-04-25T01:47:36;5.45;;;2.38;;
74487;SDS011;63019;51.080;13.642;2023-04-25T01:48:39;6.60;;;2.47;;
74487;SDS011;63019;51.080;13.642;2023-04-25T01:49:40;7.10;;;2.70;;
74487;SDS011;63019;51.080;13.642;2023-04-25T01:50:43;7.75;;;2.60;;
74487;SDS011;63019;51.080;13.642;2023-04-25T01:51:45;5.55;;;2.60;;
74487;SDS011;63019;51.080;13.642;2023-04-25T01:52:47;5.28;;;2.30;;
74487;SDS011;63019;51.080;13.642;2023-04-25T01:53:49;4.97;;;2.30;;
74487;SDS011;63019;51.080;13.642;2023-04-25T01:54:52;6.67;;;2.87;;
74487;SDS011;63019;51.080;13.642;2023-04-25T01:55:54;5.57;;;2.47;;
74487;SDS011;63019;51.080;13.642;2023-04-25T01:56:56;5.13;;;2.33;;
74487;SDS011;63019;51.080;13.642;2023-04-25T01:57:58;10.20;;;2.97;;
74487;SDS011;63019;51.080;13.642;2023-04-25T01:59:01;4.00;;;2.28;;
74487;SDS011;63019;51.080;13.642;2023-04-25T02:00:04;7.53;;;2.40;;
74487;SDS011;63019;51.080;13.642;2023-04-25T02:01:08;7.70;;;2.50;;
74487;SDS011;63019;51.080;13.642;2023-04-25T02:02:09;5.35;;;2.85;;
74487;SDS011;63019;51.080;13.642;2023-04-25T02:03:11;4.85;;;2.30;;
74487;SDS011;63019;51.080;13.642;2023-04-25T02:04:13;8.70;;;2.60;;
74487;SDS011;63019;51.080;13.642;2023-04-25T02:05:16;6.40;;;2.43;;
74487;SDS011;63019;51.080;13.642;2023-04-25T02:06:18;5.03;;;2.45;;
74487;SDS011;63019;51.080;13.642;2023-04-25T02:07:20;5.35;;;2.40;;
74487;SDS011;63019;51.080;13.642;2023-04-25T02:08:22;3.83;;;2.30;;
74487;SDS011;63019;51.080;13.642;2023-04-25T02:09:24;5.43;;;2.42;;
74487;SDS011;63019;51.080;13.642;2023-04-25T02:10:26;5.05;;;2.20;;
74487;SDS011;63019;51.080;13.642;2023-04-25T02:11:27;7.18;;;2.97;;
74487;SDS011;63019;51.080;13.642;2023-04-25T02:12:30;5.85;;;2.60;;
74487;SDS011;63019;51.080;13.642;2023-04-25T02:13:32;4.28;;;2.20;;
74487;SDS011;63019;51.080;13.642;2023-04-25T02:14:34;6.07;;;2.80;;
74487;SDS011;63019;51.080;13.642;2023-04-25T02:15:35;6.97;;;2.65;;
74487;SDS011;63019;51.080;13.642;2023-04-25T02:16:37;12.35;;;2.80;;
74487;SDS011;63019;51.080;13.642;2023-04-25T02:17:40;4.80;;;2.63;;
74487;SDS011;63019;51.080;13.642;2023-04-25T02:18:41;8.93;;;2.35;;
74487;SDS011;63019;51.080;13.642;2023-04-25T02:19:44;3.63;;;2.15;;
74487;SDS011;63019;51.080;13.642;2023-04-25T02:20:46;5.97;;;2.78;;
74487;SDS011;63019;51.080;13.642;2023-04-25T02:21:48;9.57;;;2.85;;
74487;SDS011;63019;51.080;13.642;2023-04-25T02:22:49;4.35;;;2.55;;
74487;SDS011;63019;51.080;13.642;2023-04-25T02:23:52;6.18;;;2.45;;
74487;SDS011;63019;51.080;13.642;2023-04-25T02:24:53;6.27;;;2.50;;
74487;SDS011;63019;51.080;13.642;2023-04-25T02:25:56;4.97;;;2.50;;
74487;SDS011;63019;51.080;13.642;2023-04-25T02:26:58;5.10;;;2.30;;
74487;SDS011;63019;51.080;13.642;2023-04-25T02:28:00;4.80;;;2.15;;
74487;SDS011;63019;51.080;13.642;2023-04-25T02:29:02;5.07;;;2.58;;
74487;SDS011;63019;51.080;13.642;2023-04-25T02:30:04;6.00;;;2.67;;
74487;SDS011;63019;51.080;13.642;2023-04-25T02:31:07;4.68;;;2.42;;
74487;SDS011;63019;51.080;13.642;2023-04-25T02:32:09;4.53;;;2.60;;
74487;SDS011;63019;51.080;13.642;2023-04-25T02:33:11;7.63;;;2.38;;
74487;SDS011;63019;51.080;13.642;2023-04-25T02:34:13;6.03;;;2.33;;
74487;SDS011;63019;51.080;13.642;2023-04-25T02:35:15;6.77;;;2.53;;
74487;SDS011;63019;51.080;13.642;2023-04-25T02:36:16;4.35;;;2.67;;
74487;SDS011;63019;51.080;13.642;2023-04-25T02:37:18;8.68;;;2.55;;
74487;SDS011;63019;51.080;13.642;2023-04-25T02:38:20;6.30;;;2.50;;
74487;SDS011;63019;51.080;13.642;2023-04-25T02:39:22;7.55;;;2.90;;
74487;SDS011;63019;51.080;13.642;2023-04-25T02:40:26;6.75;;;2.63;;
74487;SDS011;63019;51.080;13.642;2023-04-25T02:41:27;6.25;;;2.78;;
74487;SDS011;63019;51.080;13.642;2023-04-25T02:42:30;5.65;;;2.72;;
74487;SDS011;63019;51.080;13.642;2023-04-25T02:43:32;5.30;;;2.88;;
74487;SDS011;63019;51.080;13.642;2023-04-25T02:44:34;6.22;;;2.70;;
74487;SDS011;63019;51.080;13.642;2023-04-25T02:45:35;4.97;;;2.60;;
74487;SDS011;63019;51.080;13.642;2023-04-25T02:46:38;5.37;;;2.60;;
74487;SDS011;63019;51.080;13.642;2023-04-25T02:47:40;7.32;;;2.97;;
74487;SDS011;63019;51.080;13.642;2023-04-25T02:48:42;5.68;;;3.00;;
74487;SDS011;63019;51.080;13.642;2023-04-25T02:49:44;4.05;;;2.60;;
74487;SDS011;63019;51.080;13.642;2023-04-25T02:50:46;6.07;;;2.60;;
74487;SDS011;63019;51.080;13.642;2023-04-25T02:51:48;5.65;;;2.92;;
74487;SDS011;63019;51.080;13.642;2023-04-25T02:52:50;6.60;;;3.20;;
74487;SDS011;63019;51.080;13.642;2023-04-25T02:53:51;7.57;;;2.88;;
74487;SDS011;63019;51.080;13.642;2023-04-25T02:54:53;6.00;;;2.80;;
74487;SDS011;63019;51.080;13.642;2023-04-25T02:55:55;5.43;;;3.07;;
74487;SDS011;63019;51.080;13.642;2023-04-25T02:56:59;8.30;;;3.00;;
74487;SDS011;63019;51.080;13.642;2023-04-25T02:58:02;5.60;;;3.05;;
74487;SDS011;63019;51.080;13.642;2023-04-25T02:59:03;6.57;;;2.67;;
74487;SDS011;63019;51.080;13.642;2023-04-25T03:00:05;6.40;;;3.08;;
74487;SDS011;63019;51.080;13.642;2023-04-25T03:01:08;7.53;;;3.20;;
74487;SDS011;63019;51.080;13.642;2023-04-25T03:02:10;5.43;;;2.92;;
74487;SDS011;63019;51.080;13.642;2023-04-25T03:03:12;5.80;;;2.63;;
74487;SDS011;63019;51.080;13.642;2023-04-25T03:04:14;7.88;;;3.05;;
74487;SDS011;63019;51.080;13.642;2023-04-25T03:05:16;6.57;;;2.92;;
74487;SDS011;63019;51.080;13.642;2023-04-25T03:06:18;7.77;;;2.70;;
74487;SDS011;63019;51.080;13.642;2023-04-25T03:07:20;10.27;;;3.20;;
74487;SDS011;63019;51.080;13.642;2023-04-25T03:08:22;7.07;;;3.17;;
74487;SDS011;63019;51.080;13.642;2023-04-25T03:09:24;4.80;;;2.90;;
74487;SDS011;63019;51.080;13.642;2023-04-25T03:10:26;7.68;;;2.67;;
74487;SDS011;63019;51.080;13.642;2023-04-25T03:11:28;6.00;;;2.70;;
74487;SDS011;63019;51.080;13.642;2023-04-25T03:12:30;6.45;;;3.10;;
74487;SDS011;63019;51.080;13.642;2023-04-25T03:13:32;8.05;;;3.15;;
74487;SDS011;63019;51.080;13.642;2023-04-25T03:14:33;6.18;;;2.80;;
74487;SDS011;63019;51.080;13.642;2023-04-25T03:15:36;8.02;;;3.33;;
74487;SDS011;63019;51.080;13.642;2023-04-25T03:16:38;4.53;;;2.50;;
74487;SDS011;63019;51.080;13.642;2023-04-25T03:17:40;6.90;;;3.10;;
74487;SDS011;63019;51.080;13.642;2023-04-25T03:18:42;7.00;;;2.85;;
74487;SDS011;63019;51.080;13.642;2023-04-25T03:19:44;7.50;;;3.00;;
74487;SDS011;63019;51.080;13.642;2023-04-25T03:20:45;6.28;;;3.10;;
74487;SDS011;63019;51.080;13.642;2023-04-25T03:21:47;6.75;;;3.00;;
74487;SDS011;63019;51.080;13.642;2023-04-25T03:22:49;7.72;;;2.97;;
74487;SDS011;63019;51.080;13.642;2023-04-25T03:23:51;12.63;;;3.10;;
74487;SDS011;63019;51.080;13.642;2023-04-25T03:24:53;8.68;;;2.83;;
74487;SDS011;63019;51.080;13.642;2023-04-25T03:25:55;13.48;;;4.05;;
74487;SDS011;63019;51.080;13.642;2023-04-25T03:26:57;5.73;;;3.30;;
74487;SDS011;63019;51.080;13.642;2023-04-25T03:27:59;5.68;;;3.13;;
74487;SDS011;63019;51.080;13.642;2023-04-25T03:29:00;6.53;;;3.03;;
74487;SDS011;63019;51.080;13.642;2023-04-25T03:30:02;7.68;;;2.97;;
74487;SDS011;63019;51.080;13.642;2023-04-25T03:31:05;6.85;;;3.38;;
74487;SDS011;63019;51.080;13.642;2023-04-25T03:32:07;10.60;;;3.00;;
74487;SDS011;63019;51.080;13.642;2023-04-25T03:33:09;7.45;;;2.95;;
74487;SDS011;63019;51.080;13.642;2023-04-25T03:34:11;5.75;;;3.00;;
74487;SDS011;63019;51.080;13.642;2023-04-25T03:35:12;7.13;;;3.10;;
74487;SDS011;63019;51.080;13.642;2023-04-25T03:36:14;6.82;;;3.30;;
74487;SDS011;63019;51.080;13.642;2023-04-25T03:37:16;7.77;;;3.30;;
74487;SDS011;63019;51.080;13.642;2023-04-25T03:38:18;7.20;;;3.20;;
74487;SDS011;63019;51.080;13.642;2023-04-25T03:39:20;12.50;;;3.35;;
74487;SDS011;63019;51.080;13.642;2023-04-25T03:40:21;9.30;;;3.10;;
74487;SDS011;63019;51.080;13.642;2023-04-25T03:41:23;6.38;;;3.00;;
74487;SDS011;63019;51.080;13.642;2023-04-25T03:42:26;6.47;;;3.10;;
74487;SDS011;63019;51.080;13.642;2023-04-25T03:43:27;4.40;;;2.75;;
74487;SDS011;63019;51.080;13.642;2023-04-25T03:44:29;8.02;;;3.33;;
74487;SDS011;63019;51.080;13.642;2023-04-25T03:45:31;6.82;;;2.78;;
74487;SDS011;63019;51.080;13.642;2023-04-25T03:46:33;8.07;;;3.10;;
74487;SDS011;63019;51.080;13.642;2023-04-25T03:47:35;7.47;;;2.70;;
74487;SDS011;63019;51.080;13.642;2023-04-25T03:48:37;5.70;;;3.10;;
74487;SDS011;63019;51.080;13.642;2023-04-25T03:49:39;8.15;;;2.90;;
74487;SDS011;63019;51.080;13.642;2023-04-25T03:50:40;5.82;;;2.90;;
74487;SDS011;63019;51.080;13.642;2023-04-25T03:51:42;7.60;;;2.97;;
74487;SDS011;63019;51.080;13.642;2023-04-25T03:52:44;8.80;;;3.08;;
74487;SDS011;63019;51.080;13.642;2023-04-25T03:53:47;6.28;;;3.13;;
74487;SDS011;63019;51.080;13.642;2023-04-25T03:54:49;12.27;;;3.45;;
74487;SDS011;63019;51.080;13.642;2023-04-25T03:55:51;7.85;;;3.22;;
74487;SDS011;63019;51.080;13.642;2023-04-25T03:56:53;6.15;;;3.03;;
74487;SDS011;63019;51.080;13.642;2023-04-25T03:57:55;15.03;;;3.50;;
74487;SDS011;63019;51.080;13.642;2023-04-25T03:58:59;6.50;;;3.25;;
74487;SDS011;63019;51.080;13.642;2023-04-25T04:00:00;10.10;;;3.53;;
74487;SDS011;63019;51.080;13.642;2023-04-25T04:01:02;7.20;;;3.25;;
74487;SDS011;63019;51.080;13.642;2023-04-25T04:02:08;8.65;;;3.33;;
74487;SDS011;63019;51.080;13.642;2023-04-25T04:03:10;7.35;;;3.28;;
74487;SDS011;63019;51.080;13.642;2023-04-25T04:04:12;7.25;;;3.33;;
74487;SDS011;63019;51.080;13.642;2023-04-25T04:05:14;8.90;;;3.35;;
74487;SDS011;63019;51.080;13.642;2023-04-25T04:06:16;7.20;;;3.22;;
74487;SDS011;63019;51.080;13.642;2023-04-25T04:07:19;8.50;;;3.10;;
74487;SDS011;63019;51.080;13.642;2023-04-25T04:08:20;8.83;;;3.37;;
74487;SDS011;63019;51.080;13.642;2023-04-25T04:09:22;5.13;;;2.85;;
74487;SDS011;63019;51.080;13.642;2023-04-25T04:10:24;5.90;;;2.70;;
74487;SDS011;63019;51.080;13.642;2023-04-25T04:11:27;5.97;;;2.78;;
74487;SDS011;63019;51.080;13.642;2023-04-25T04:12:29;8.13;;;3.38;;
74487;SDS011;63019;51.080;13.642;2023-04-25T04:13:30;9.60;;;3.55;;
74487;SDS011;63019;51.080;13.642;2023-04-25T04:14:33;6.10;;;2.92;;
74487;SDS011;63019;51.080;13.642;2023-04-25T04:15:35;11.05;;;3.42;;
74487;SDS011;63019;51.080;13.642;2023-04-25T04:16:37;9.50;;;3.40;;
74487;SDS011;63019;51.080;13.642;2023-04-25T04:17:39;8.55;;;3.40;;
74487;SDS011;63019;51.080;13.642;2023-04-25T04:18:42;6.93;;;3.23;;
74487;SDS011;63019;51.080;13.642;2023-04-25T04:19:44;10.25;;;3.35;;
74487;SDS011;63019;51.080;13.642;2023-04-25T04:20:46;7.22;;;4.07;;
74487;SDS011;63019;51.080;13.642;2023-04-25T04:21:48;6.80;;;3.40;;
74487;SDS011;63019;51.080;13.642;2023-04-25T04:22:49;6.18;;;3.30;;
74487;SDS011;63019;51.080;13.642;2023-04-25T04:23:51;7.57;;;3.28;;
74487;SDS011;63019;51.080;13.642;2023-04-25T04:24:53;5.78;;;3.38;;
74487;SDS011;63019;51.080;13.642;2023-04-25T04:25:55;6.03;;;2.85;;
74487;SDS011;63019;51.080;13.642;2023-04-25T04:26:57;10.32;;;3.63;;
74487;SDS011;63019;51.080;13.642;2023-04-25T04:28:00;7.20;;;3.58;;
74487;SDS011;63019;51.080;13.642;2023-04-25T04:29:02;7.57;;;3.40;;
74487;SDS011;63019;51.080;13.642;2023-04-25T04:30:04;8.05;;;3.30;;
74487;SDS011;63019;51.080;13.642;2023-04-25T04:31:07;6.93;;;3.15;;
74487;SDS011;63019;51.080;13.642;2023-04-25T04:32:09;5.05;;;3.10;;
74487;SDS011;63019;51.080;13.642;2023-04-25T04:33:11;8.65;;;2.92;;
74487;SDS011;63019;51.080;13.642;2023-04-25T04:34:13;11.43;;;3.20;;
74487;SDS011;63019;51.080;13.642;2023-04-25T04:35:15;7.32;;;3.55;;
74487;SDS011;63019;51.080;13.642;2023-04-25T04:36:16;9.60;;;3.35;;
74487;SDS011;63019;51.080;13.642;2023-04-25T04:37:20;7.38;;;3.25;;
74487;SDS011;63019;51.080;13.642;2023-04-25T04:38:23;8.65;;;3.40;;
74487;SDS011;63019;51.080;13.642;2023-04-25T04:39:25;7.33;;;3.20;;
74487;SDS011;63019;51.080;13.642;2023-04-25T04:40:27;7.93;;;3.30;;
74487;SDS011;63019;51.080;13.642;2023-04-25T04:41:28;7.45;;;3.25;;
74487;SDS011;63019;51.080;13.642;2023-04-25T04:42:31;10.55;;;3.30;;
74487;SDS011;63019;51.080;13.642;2023-04-25T04:43:33;8.40;;;3.20;;
74487;SDS011;63019;51.080;13.642;2023-04-25T04:44:34;12.10;;;3.20;;
74487;SDS011;63019;51.080;13.642;2023-04-25T04:45:36;7.95;;;3.10;;
74487;SDS011;63019;51.080;13.642;2023-04-25T04:46:41;6.22;;;2.90;;
74487;SDS011;63019;51.080;13.642;2023-04-25T04:47:43;4.78;;;2.90;;
74487;SDS011;63019;51.080;13.642;2023-04-25T04:48:45;7.03;;;3.30;;
74487;SDS011;63019;51.080;13.642;2023-04-25T04:49:47;6.13;;;2.60;;
74487;SDS011;63019;51.080;13.642;2023-04-25T04:50:49;6.68;;;3.00;;
74487;SDS011;63019;51.080;13.642;2023-04-25T04:51:51;5.85;;;2.92;;
74487;SDS011;63019;51.080;13.642;2023-04-25T04:52:53;9.20;;;2.90;;
74487;SDS011;63019;51.080;13.642;2023-04-25T04:53:56;6.82;;;3.10;;
74487;SDS011;63019;51.080;13.642;2023-04-25T04:54:59;7.90;;;3.05;;
74487;SDS011;63019;51.080;13.642;2023-04-25T04:56:01;4.65;;;2.60;;
74487;SDS011;63019;51.080;13.642;2023-04-25T04:57:03;6.50;;;3.10;;
74487;SDS011;63019;51.080;13.642;2023-04-25T04:58:05;6.70;;;2.80;;
74487;SDS011;63019;51.080;13.642;2023-04-25T04:59:07;5.85;;;2.97;;
74487;SDS011;63019;51.080;13.642;2023-04-25T05:00:09;7.30;;;2.70;;
74487;SDS011;63019;51.080;13.642;2023-04-25T05:01:12;5.37;;;2.67;;
74487;SDS011;63019;51.080;13.642;2023-04-25T05:02:14;8.23;;;2.70;;
74487;SDS011;63019;51.080;13.642;2023-04-25T05:03:16;6.00;;;2.40;;
74487;SDS011;63019;51.080;13.642;2023-04-25T05:04:18;7.25;;;2.80;;
74487;SDS011;63019;51.080;13.642;2023-04-25T05:05:20;9.55;;;2.95;;
74487;SDS011;63019;51.080;13.642;2023-04-25T05:06:22;4.50;;;2.30;;
74487;SDS011;63019;51.080;13.642;2023-04-25T05:07:23;6.32;;;2.88;;
74487;SDS011;63019;51.080;13.642;2023-04-25T05:08:26;4.78;;;2.60;;
74487;SDS011;63019;51.080;13.642;2023-04-25T05:09:27;12.68;;;2.78;;
74487;SDS011;63019;51.080;13.642;2023-04-25T05:10:29;4.37;;;2.43;;
74487;SDS011;63019;51.080;13.642;2023-04-25T05:11:31;7.37;;;2.50;;
74487;SDS011;63019;51.080;13.642;2023-04-25T05:12:33;8.55;;;2.60;;
74487;SDS011;63019;51.080;13.642;2023-04-25T05:13:37;5.15;;;2.70;;
74487;SDS011;63019;51.080;13.642;2023-04-25T05:14:39;6.90;;;2.47;;
74487;SDS011;63019;51.080;13.642;2023-04-25T05:15:41;7.05;;;2.78;;
74487;SDS011;63019;51.080;13.642;2023-04-25T05:16:43;4.78;;;2.78;;
74487;SDS011;63019;51.080;13.642;2023-04-25T05:17:45;5.95;;;2.85;;
74487;SDS011;63019;51.080;13.642;2023-04-25T05:18:47;7.82;;;2.67;;
74487;SDS011;63019;51.080;13.642;2023-04-25T05:19:49;7.03;;;2.42;;
74487;SDS011;63019;51.080;13.642;2023-04-25T05:20:51;3.97;;;2.43;;
74487;SDS011;63019;51.080;13.642;2023-04-25T05:21:52;7.47;;;2.93;;
74487;SDS011;63019;51.080;13.642;2023-04-25T05:22:54;5.35;;;2.17;;
74487;SDS011;63019;51.080;13.642;2023-04-25T05:23:56;7.68;;;3.03;;
74487;SDS011;63019;51.080;13.642;2023-04-25T05:24:58;13.82;;;2.55;;
74487;SDS011;63019;51.080;13.642;2023-04-25T05:26:00;6.82;;;2.50;;
74487;SDS011;63019;51.080;13.642;2023-04-25T05:27:02;5.63;;;2.38;;
74487;SDS011;63019;51.080;13.642;2023-04-25T05:28:04;6.80;;;2.60;;
74487;SDS011;63019;51.080;13.642;2023-04-25T05:29:06;9.05;;;2.50;;
74487;SDS011;63019;51.080;13.642;2023-04-25T05:30:08;5.85;;;2.38;;
74487;SDS011;63019;51.080;13.642;2023-04-25T05:31:10;9.27;;;2.50;;
74487;SDS011;63019;51.080;13.642;2023-04-25T05:32:12;7.10;;;2.53;;
74487;SDS011;63019;51.080;13.642;2023-04-25T05:33:14;5.28;;;2.60;;
74487;SDS011;63019;51.080;13.642;2023-04-25T05:34:16;5.30;;;2.50;;
74487;SDS011;63019;51.080;13.642;2023-04-25T05:35:18;8.70;;;2.70;;
74487;SDS011;63019;51.080;13.642;2023-04-25T05:36:20;5.72;;;2.40;;
74487;SDS011;63019;51.080;13.642;2023-04-25T05:37:22;6.38;;;2.47;;
74487;SDS011;63019;51.080;13.642;2023-04-25T05:38:24;6.82;;;2.60;;
74487;SDS011;63019;51.080;13.642;2023-04-25T05:39:26;6.57;;;2.75;;
74487;SDS011;63019;51.080;13.642;2023-04-25T05:40:28;9.02;;;2.58;;
74487;SDS011;63019;51.080;13.642;2023-04-25T05:41:29;3.97;;;2.50;;
74487;SDS011;63019;51.080;13.642;2023-04-25T05:42:31;8.57;;;2.90;;
74487;SDS011;63019;51.080;13.642;2023-04-25T05:43:33;11.07;;;2.80;;
74487;SDS011;63019;51.080;13.642;2023-04-25T05:44:35;11.68;;;2.83;;
74487;SDS011;63019;51.080;13.642;2023-04-25T05:45:37;5.18;;;2.25;;
74487;SDS011;63019;51.080;13.642;2023-04-25T05:46:39;10.40;;;3.30;;
74487;SDS011;63019;51.080;13.642;2023-04-25T05:47:41;8.45;;;2.63;;
74487;SDS011;63019;51.080;13.642;2023-04-25T05:48:43;5.90;;;2.42;;
74487;SDS011;63019;51.080;13.642;2023-04-25T05:49:45;9.43;;;2.58;;
74487;SDS011;63019;51.080;13.642;2023-04-25T05:50:46;6.32;;;2.58;;
74487;SDS011;63019;51.080;13.642;2023-04-25T05:51:48;6.60;;;2.57;;
74487;SDS011;63019;51.080;13.642;2023-04-25T05:52:50;5.33;;;2.70;;
74487;SDS011;63019;51.080;13.642;2023-04-25T05:53:52;4.43;;;2.35;;
74487;SDS011;63019;51.080;13.642;2023-04-25T05:54:54;9.75;;;2.78;;
74487;SDS011;63019;51.080;13.642;2023-04-25T05:55:56;13.93;;;2.60;;
74487;SDS011;63019;51.080;13.642;2023-04-25T05:56:57;7.28;;;2.60;;
74487;SDS011;63019;51.080;13.642;2023-04-25T05:57:59;7.65;;;2.75;;
74487;SDS011;63019;51.080;13.642;2023-04-25T05:59:01;10.40;;;2.70;;
74487;SDS011;63019;51.080;13.642;2023-04-25T06:00:04;4.80;;;2.70;;
74487;SDS011;63019;51.080;13.642;2023-04-25T06:01:10;8.68;;;2.60;;
74487;SDS011;63019;51.080;13.642;2023-04-25T06:02:11;7.43;;;2.40;;
74487;SDS011;63019;51.080;13.642;2023-04-25T06:03:13;5.77;;;2.70;;
74487;SDS011;63019;51.080;13.642;2023-04-25T06:04:20;10.10;;;2.60;;
74487;SDS011;63019;51.080;13.642;2023-04-25T06:05:22;10.15;;;2.90;;
74487;SDS011;63019;51.080;13.642;2023-04-25T06:06:24;7.72;;;2.70;;
74487;SDS011;63019;51.080;13.642;2023-04-25T06:07:28;10.00;;;3.30;;
74487;SDS011;63019;51.080;13.642;2023-04-25T06:08:31;6.68;;;2.90;;